sensor_id;sensor_type;location;lat;lon;timestamp;temperature;humidity
39503;DHT22;26970;49.900;10.774;2023-04-02T00:05:27;7.70;99.90
39503;DHT22;26970;49.900;10.774;2023-04-02T00:07:58;7.70;99.90
39503;DHT22;26970;49.900;10.774;2023-04-02T00:10:38;7.70;99.90
39503;DHT22;26970;49.900;10.774;2023-04-02T00:15:40;7.70;99.90
39503;DHT22;26970;49.900;10.774;2023-04-02T00:18:10;7.70;99.90
39503;DHT22;26970;49.900;10.774;2023-04-02T00:20:40;7.70;99.90
39503;DHT22;26970;49.900;10.774;2023-04-02T00:23:11;7.70;99.90
39503;DHT22;26970;49.900;10.774;2023-04-02T00:25:38;7.70;99.90
39503;DHT22;26970;49.900;10.774;2023-04-02T00:28:13;7.70;99.90
39503;DHT22;26970;49.900;10.774;2023-04-02T00:30:49;7.70;99.90
39503;DHT22;26970;49.900;10.774;2023-04-02T00:33:17;7.70;99.90
39503;DHT22;26970;49.900;10.774;2023-04-02T00:35:44;7.60;99.90
39503;DHT22;26970;49.900;10.774;2023-04-02T00:38:23;7.60;99.90
39503;DHT22;26970;49.900;10.774;2023-04-02T00:40:50;7.60;99.90
39503;DHT22;26970;49.900;10.774;2023-04-02T00:43:17;7.60;99.90
39503;DHT22;26970;49.900;10.774;2023-04-02T00:45:45;7.60;99.90
39503;DHT22;26970;49.900;10.774;2023-04-02T00:48:49;7.60;99.90
39503;DHT22;26970;49.900;10.774;2023-04-02T00:51:30;7.60;99.90
39503;DHT22;26970;49.900;10.774;2023-04-02T00:54:00;7.60;99.90
39503;DHT22;26970;49.900;10.774;2023-04-02T00:56:33;7.60;99.90
39503;DHT22;26970;49.900;10.774;2023-04-02T00:59:01;7.60;99.90
39503;DHT22;26970;49.900;10.774;2023-04-02T01:01:34;7.60;99.90
39503;DHT22;26970;49.900;10.774;2023-04-02T01:04:02;7.60;99.90
39503;DHT22;26970;49.900;10.774;2023-04-02T01:06:32;7.60;99.90
39503;DHT22;26970;49.900;10.774;2023-04-02T01:14:51;7.60;99.90
39503;DHT22;26970;49.900;10.774;2023-04-02T01:18:01;7.60;99.90
39503;DHT22;26970;49.900;10.774;2023-04-02T01:23:23;7.60;99.90
39503;DHT22;26970;49.900;10.774;2023-04-02T01:26:20;7.60;99.90
39503;DHT22;26970;49.900;10.774;2023-04-02T01:28:54;7.60;99.90
39503;DHT22;26970;49.900;10.774;2023-04-02T01:31:23;7.60;99.90
39503;DHT22;26970;49.900;10.774;2023-04-02T01:33:51;7.60;99.90
39503;DHT22;26970;49.900;10.774;2023-04-02T01:41:53;7.60;99.90
39503;DHT22;26970;49.900;10.774;2023-04-02T01:44:30;7.60;99.90
39503;DHT22;26970;49.900;10.774;2023-04-02T01:47:01;7.60;99.90
39503;DHT22;26970;49.900;10.774;2023-04-02T01:49:28;7.50;99.90
39503;DHT22;26970;49.900;10.774;2023-04-02T01:51:54;7.60;99.90
39503;DHT22;26970;49.900;10.774;2023-04-02T01:54:24;7.60;99.90
39503;DHT22;26970;49.900;10.774;2023-04-02T01:56:50;7.50;99.90
39503;DHT22;26970;49.900;10.774;2023-04-02T01:59:18;7.60;99.90
39503;DHT22;26970;49.900;10.774;2023-04-02T02:02:13;7.50;99.90
39503;DHT22;26970;49.900;10.774;2023-04-02T02:04:39;7.50;99.90
39503;DHT22;26970;49.900;10.774;2023-04-02T02:07:05;7.50;99.90
39503;DHT22;26970;49.900;10.774;2023-04-02T02:09:39;7.50;99.90
39503;DHT22;26970;49.900;10.774;2023-04-02T02:12:05;7.50;99.90
39503;DHT22;26970;49.900;10.774;2023-04-02T02:14:31;7.50;99.90
39503;DHT22;26970;49.900;10.774;2023-04-02T02:16:59;7.50;99.90
39503;DHT22;26970;49.900;10.774;2023-04-02T02:19:35;7.50;99.90
39503;DHT22;26970;49.900;10.774;2023-04-02T02:24:43;7.50;99.90
39503;DHT22;26970;49.900;10.774;2023-04-02T02:29:51;7.50;99.90
39503;DHT22;26970;49.900;10.774;2023-04-02T02:32:20;7.50;99.90
39503;DHT22;26970;49.900;10.774;2023-04-02T02:35:18;7.40;99.90
39503;DHT22;26970;49.900;10.774;2023-04-02T02:37:44;7.50;99.90
39503;DHT22;26970;49.900;10.774;2023-04-02T02:40:26;7.50;99.90
39503;DHT22;26970;49.900;10.774;2023-04-02T02:42:56;7.50;99.90
39503;DHT22;26970;49.900;10.774;2023-04-02T02:45:30;7.50;99.90
39503;DHT22;26970;49.900;10.774;2023-04-02T02:47:58;7.50;99.90
39503;DHT22;26970;49.900;10.774;2023-04-02T02:50:26;7.50;99.90
39503;DHT22;26970;49.900;10.774;2023-04-02T02:52:58;7.50;99.90
39503;DHT22;26970;49.900;10.774;2023-04-02T02:55:28;7.50;99.90
39503;DHT22;26970;49.900;10.774;2023-04-02T02:58:17;7.50;99.90
39503;DHT22;26970;49.900;10.774;2023-04-02T03:00:44;7.50;99.90
39503;DHT22;26970;49.900;10.774;2023-04-02T03:03:15;7.50;99.90
39503;DHT22;26970;49.900;10.774;2023-04-02T03:05:42;7.50;99.90
39503;DHT22;26970;49.900;10.774;2023-04-02T03:08:20;7.50;99.90
39503;DHT22;26970;49.900;10.774;2023-04-02T03:11:14;7.50;99.90
39503;DHT22;26970;49.900;10.774;2023-04-02T03:13:45;7.50;99.90
39503;DHT22;26970;49.900;10.774;2023-04-02T03:19:33;7.50;99.90
39503;DHT22;26970;49.900;10.774;2023-04-02T03:22:28;7.50;99.90
39503;DHT22;26970;49.900;10.774;2023-04-02T03:27:54;7.50;99.90
39503;DHT22;26970;49.900;10.774;2023-04-02T03:30:39;7.50;99.90
39503;DHT22;26970;49.900;10.774;2023-04-02T03:35:45;7.50;99.90
39503;DHT22;26970;49.900;10.774;2023-04-02T03:38:19;7.50;99.90
39503;DHT22;26970;49.900;10.774;2023-04-02T03:41:09;7.50;99.90
39503;DHT22;26970;49.900;10.774;2023-04-02T03:43:39;7.60;99.90
39503;DHT22;26970;49.900;10.774;2023-04-02T03:48:45;7.60;99.90
39503;DHT22;26970;49.900;10.774;2023-04-02T03:54:12;7.60;99.90
39503;DHT22;26970;49.900;10.774;2023-04-02T03:56:40;7.60;99.90
39503;DHT22;26970;49.900;10.774;2023-04-02T03:59:28;7.60;99.90
39503;DHT22;26970;49.900;10.774;2023-04-02T04:04:55;7.60;99.90
39503;DHT22;26970;49.900;10.774;2023-04-02T04:07:49;7.60;99.90
39503;DHT22;26970;49.900;10.774;2023-04-02T04:10:23;7.60;99.90
39503;DHT22;26970;49.900;10.774;2023-04-02T04:12:51;7.60;99.90
39503;DHT22;26970;49.900;10.774;2023-04-02T04:15:30;7.60;99.90
39503;DHT22;26970;49.900;10.774;2023-04-02T04:20:42;7.60;99.90
39503;DHT22;26970;49.900;10.774;2023-04-02T04:23:35;7.60;99.90
39503;DHT22;26970;49.900;10.774;2023-04-02T04:34:13;7.60;99.90
39503;DHT22;26970;49.900;10.774;2023-04-02T04:36:44;7.60;99.90
39503;DHT22;26970;49.900;10.774;2023-04-02T04:39:17;7.70;99.90
39503;DHT22;26970;49.900;10.774;2023-04-02T04:41:47;7.70;99.90
39503;DHT22;26970;49.900;10.774;2023-04-02T04:44:27;7.60;99.90
39503;DHT22;26970;49.900;10.774;2023-04-02T04:52:23;7.70;99.90
39503;DHT22;26970;49.900;10.774;2023-04-02T04:54:50;7.70;99.90
39503;DHT22;26970;49.900;10.774;2023-04-02T04:57:36;7.70;99.90
39503;DHT22;26970;49.900;10.774;2023-04-02T05:02:52;7.70;99.90
39503;DHT22;26970;49.900;10.774;2023-04-02T05:05:24;7.70;99.90
39503;DHT22;26970;49.900;10.774;2023-04-02T05:07:56;7.70;99.90
39503;DHT22;26970;49.900;10.774;2023-04-02T05:13:19;7.60;99.90
39503;DHT22;26970;49.900;10.774;2023-04-02T05:18:58;7.60;99.90
39503;DHT22;26970;49.900;10.774;2023-04-02T05:21:26;7.60;99.90
39503;DHT22;26970;49.900;10.774;2023-04-02T05:24:42;7.40;99.90
39503;DHT22;26970;49.900;10.774;2023-04-02T05:27:28;7.00;99.90
39503;DHT22;26970;49.900;10.774;2023-04-02T05:30:03;6.60;99.90
39503;DHT22;26970;49.900;10.774;2023-04-02T05:32:36;6.50;99.90
39503;DHT22;26970;49.900;10.774;2023-04-02T05:35:05;6.30;99.90
39503;DHT22;26970;49.900;10.774;2023-04-02T05:37:31;6.30;99.90
39503;DHT22;26970;49.900;10.774;2023-04-02T05:40:08;6.20;99.90
39503;DHT22;26970;49.900;10.774;2023-04-02T05:42:38;6.20;99.90
39503;DHT22;26970;49.900;10.774;2023-04-02T05:47:47;6.00;99.90
39503;DHT22;26970;49.900;10.774;2023-04-02T05:50:28;5.90;99.90
39503;DHT22;26970;49.900;10.774;2023-04-02T05:58:25;5.80;99.90
39503;DHT22;26970;49.900;10.774;2023-04-02T06:03:50;5.80;99.90
39503;DHT22;26970;49.900;10.774;2023-04-02T06:09:21;5.90;99.90
39503;DHT22;26970;49.900;10.774;2023-04-02T06:14:33;5.80;99.90
39503;DHT22;26970;49.900;10.774;2023-04-02T06:16:58;5.70;99.90
39503;DHT22;26970;49.900;10.774;2023-04-02T06:19:31;5.60;99.90
39503;DHT22;26970;49.900;10.774;2023-04-02T06:22:09;5.50;99.90
39503;DHT22;26970;49.900;10.774;2023-04-02T06:24:43;5.50;99.90
39503;DHT22;26970;49.900;10.774;2023-04-02T06:27:11;5.40;99.90
39503;DHT22;26970;49.900;10.774;2023-04-02T06:29:41;5.30;99.90
39503;DHT22;26970;49.900;10.774;2023-04-02T06:32:08;5.30;99.90
39503;DHT22;26970;49.900;10.774;2023-04-02T06:34:37;5.20;99.90
39503;DHT22;26970;49.900;10.774;2023-04-02T06:37:32;5.20;99.90
39503;DHT22;26970;49.900;10.774;2023-04-02T06:40:00;5.10;99.90
39503;DHT22;26970;49.900;10.774;2023-04-02T06:42:30;5.00;99.90
39503;DHT22;26970;49.900;10.774;2023-04-02T06:44:58;5.00;99.90
39503;DHT22;26970;49.900;10.774;2023-04-02T06:47:42;4.90;99.90
39503;DHT22;26970;49.900;10.774;2023-04-02T06:50:36;4.90;99.90
39503;DHT22;26970;49.900;10.774;2023-04-02T06:53:04;4.80;99.90
39503;DHT22;26970;49.900;10.774;2023-04-02T06:58:36;4.90;99.90
39503;DHT22;26970;49.900;10.774;2023-04-02T07:01:02;4.80;99.90
39503;DHT22;26970;49.900;10.774;2023-04-02T07:03:29;4.80;99.90
39503;DHT22;26970;49.900;10.774;2023-04-02T07:05:56;4.80;99.90
39503;DHT22;26970;49.900;10.774;2023-04-02T07:08:23;4.80;99.90
39503;DHT22;26970;49.900;10.774;2023-04-02T07:10:48;4.80;99.90
39503;DHT22;26970;49.900;10.774;2023-04-02T07:13:19;4.80;99.90
39503;DHT22;26970;49.900;10.774;2023-04-02T07:15:48;4.80;99.90
39503;DHT22;26970;49.900;10.774;2023-04-02T07:20:51;4.90;99.90
39503;DHT22;26970;49.900;10.774;2023-04-02T07:23:16;4.80;99.90
39503;DHT22;26970;49.900;10.774;2023-04-02T07:25:42;4.90;99.90
39503;DHT22;26970;49.900;10.774;2023-04-02T07:28:08;4.90;99.90
39503;DHT22;26970;49.900;10.774;2023-04-02T07:30:34;4.90;99.90
39503;DHT22;26970;49.900;10.774;2023-04-02T07:32:59;4.80;99.90
39503;DHT22;26970;49.900;10.774;2023-04-02T07:35:26;4.90;99.90
39503;DHT22;26970;49.900;10.774;2023-04-02T07:37:51;4.80;99.90
39503;DHT22;26970;49.900;10.774;2023-04-02T07:40:20;4.80;99.90
39503;DHT22;26970;49.900;10.774;2023-04-02T07:42:47;4.90;99.90
39503;DHT22;26970;49.900;10.774;2023-04-02T07:45:13;4.80;99.90
39503;DHT22;26970;49.900;10.774;2023-04-02T07:47:39;4.80;99.90
39503;DHT22;26970;49.900;10.774;2023-04-02T07:50:06;4.80;99.90
39503;DHT22;26970;49.900;10.774;2023-04-02T07:52:33;4.90;99.90
39503;DHT22;26970;49.900;10.774;2023-04-02T07:54:59;4.90;99.90
39503;DHT22;26970;49.900;10.774;2023-04-02T07:57:26;4.80;99.90
39503;DHT22;26970;49.900;10.774;2023-04-02T07:59:51;4.80;99.90
39503;DHT22;26970;49.900;10.774;2023-04-02T08:02:21;4.80;99.90
39503;DHT22;26970;49.900;10.774;2023-04-02T08:04:49;5.00;99.90
39503;DHT22;26970;49.900;10.774;2023-04-02T08:07:17;4.90;99.90
39503;DHT22;26970;49.900;10.774;2023-04-02T08:09:43;5.00;99.90
39503;DHT22;26970;49.900;10.774;2023-04-02T08:12:12;5.00;99.90
39503;DHT22;26970;49.900;10.774;2023-04-02T08:14:38;4.90;99.90
39503;DHT22;26970;49.900;10.774;2023-04-02T08:17:04;4.90;99.90
39503;DHT22;26970;49.900;10.774;2023-04-02T08:19:30;4.90;99.90
39503;DHT22;26970;49.900;10.774;2023-04-02T08:21:55;4.90;99.90
39503;DHT22;26970;49.900;10.774;2023-04-02T08:24:21;4.70;99.90
39503;DHT22;26970;49.900;10.774;2023-04-02T08:26:48;4.60;99.90
39503;DHT22;26970;49.900;10.774;2023-04-02T08:29:14;4.60;99.90
39503;DHT22;26970;49.900;10.774;2023-04-02T08:31:40;4.60;99.90
39503;DHT22;26970;49.900;10.774;2023-04-02T08:34:06;4.60;99.90
39503;DHT22;26970;49.900;10.774;2023-04-02T08:36:34;4.60;99.90
39503;DHT22;26970;49.900;10.774;2023-04-02T08:39:01;4.50;99.90
39503;DHT22;26970;49.900;10.774;2023-04-02T08:41:27;4.50;99.90
39503;DHT22;26970;49.900;10.774;2023-04-02T08:43:57;4.60;99.90
39503;DHT22;26970;49.900;10.774;2023-04-02T08:49:14;4.70;99.90
39503;DHT22;26970;49.900;10.774;2023-04-02T08:51:41;4.70;99.90
39503;DHT22;26970;49.900;10.774;2023-04-02T08:57:42;4.70;99.90
39503;DHT22;26970;49.900;10.774;2023-04-02T08:59:45;4.80;99.90
39503;DHT22;26970;49.900;10.774;2023-04-02T09:04:44;4.80;99.90
39503;DHT22;26970;49.900;10.774;2023-04-02T09:07:15;4.70;99.90
39503;DHT22;26970;49.900;10.774;2023-04-02T09:09:41;4.60;99.90
39503;DHT22;26970;49.900;10.774;2023-04-02T09:12:17;4.60;99.90
39503;DHT22;26970;49.900;10.774;2023-04-02T09:17:30;4.60;99.90
39503;DHT22;26970;49.900;10.774;2023-04-02T09:20:12;4.60;99.90
39503;DHT22;26970;49.900;10.774;2023-04-02T09:22:38;4.70;99.90
39503;DHT22;26970;49.900;10.774;2023-04-02T09:25:05;4.80;99.90
39503;DHT22;26970;49.900;10.774;2023-04-02T09:27:36;4.90;99.90
39503;DHT22;26970;49.900;10.774;2023-04-02T09:33:04;4.90;99.90
39503;DHT22;26970;49.900;10.774;2023-04-02T09:35:55;4.80;99.90
39503;DHT22;26970;49.900;10.774;2023-04-02T09:38:24;4.90;99.90
39503;DHT22;26970;49.900;10.774;2023-04-02T09:46:05;4.80;99.90
39503;DHT22;26970;49.900;10.774;2023-04-02T09:48:44;4.80;99.90
39503;DHT22;26970;49.900;10.774;2023-04-02T09:53:39;4.60;99.90
39503;DHT22;26970;49.900;10.774;2023-04-02T09:56:18;4.60;99.90
39503;DHT22;26970;49.900;10.774;2023-04-02T09:58:45;4.70;99.90
39503;DHT22;26970;49.900;10.774;2023-04-02T10:01:31;4.70;99.90
39503;DHT22;26970;49.900;10.774;2023-04-02T10:03:58;4.50;99.90
39503;DHT22;26970;49.900;10.774;2023-04-02T10:06:26;4.50;99.90
39503;DHT22;26970;49.900;10.774;2023-04-02T10:08:52;4.50;99.90
39503;DHT22;26970;49.900;10.774;2023-04-02T10:11:23;4.50;99.90
39503;DHT22;26970;49.900;10.774;2023-04-02T10:14:03;4.60;99.90
39503;DHT22;26970;49.900;10.774;2023-04-02T10:16:34;4.70;99.90
39503;DHT22;26970;49.900;10.774;2023-04-02T10:19:27;4.60;99.90
39503;DHT22;26970;49.900;10.774;2023-04-02T10:21:54;4.60;99.90
39503;DHT22;26970;49.900;10.774;2023-04-02T10:24:20;4.70;99.90
39503;DHT22;26970;49.900;10.774;2023-04-02T10:30:34;4.70;99.90
39503;DHT22;26970;49.900;10.774;2023-04-02T10:33:14;4.80;99.90
39503;DHT22;26970;49.900;10.774;2023-04-02T10:38:40;4.50;99.90
39503;DHT22;26970;49.900;10.774;2023-04-02T10:41:28;4.50;99.90
39503;DHT22;26970;49.900;10.774;2023-04-02T10:52:23;4.60;99.90
39503;DHT22;26970;49.900;10.774;2023-04-02T10:54:53;4.50;99.90
39503;DHT22;26970;49.900;10.774;2023-04-02T10:57:41;4.40;99.90
39503;DHT22;26970;49.900;10.774;2023-04-02T11:03:05;4.60;99.90
39503;DHT22;26970;49.900;10.774;2023-04-02T11:05:33;4.60;99.90
39503;DHT22;26970;49.900;10.774;2023-04-02T11:08:26;4.60;99.90
39503;DHT22;26970;49.900;10.774;2023-04-02T11:11:11;4.70;99.90
39503;DHT22;26970;49.900;10.774;2023-04-02T11:14:09;4.70;99.90
39503;DHT22;26970;49.900;10.774;2023-04-02T11:16:36;4.60;99.90
39503;DHT22;26970;49.900;10.774;2023-04-02T11:24:34;4.60;99.90
39503;DHT22;26970;49.900;10.774;2023-04-02T11:27:14;4.60;99.90
39503;DHT22;26970;49.900;10.774;2023-04-02T11:32:37;4.50;99.90
39503;DHT22;26970;49.900;10.774;2023-04-02T11:38:01;4.50;99.90
39503;DHT22;26970;49.900;10.774;2023-04-02T11:48:41;4.60;99.90
39503;DHT22;26970;49.900;10.774;2023-04-02T11:53:49;4.70;99.90
39503;DHT22;26970;49.900;10.774;2023-04-02T12:07:44;4.60;99.90
39503;DHT22;26970;49.900;10.774;2023-04-02T12:10:23;4.60;99.90
39503;DHT22;26970;49.900;10.774;2023-04-02T12:12:50;4.50;99.90
39503;DHT22;26970;49.900;10.774;2023-04-02T12:15:41;4.40;99.90
39503;DHT22;26970;49.900;10.774;2023-04-02T12:18:22;4.40;99.90
39503;DHT22;26970;49.900;10.774;2023-04-02T12:20:50;4.40;99.90
39503;DHT22;26970;49.900;10.774;2023-04-02T12:23:19;4.40;99.90
39503;DHT22;26970;49.900;10.774;2023-04-02T12:25:57;4.40;99.90
39503;DHT22;26970;49.900;10.774;2023-04-02T12:28:24;4.40;99.90
39503;DHT22;26970;49.900;10.774;2023-04-02T12:31:10;4.30;99.90
39503;DHT22;26970;49.900;10.774;2023-04-02T12:33:38;4.40;99.90
39503;DHT22;26970;49.900;10.774;2023-04-02T12:38:46;4.60;99.90
39503;DHT22;26970;49.900;10.774;2023-04-02T12:41:29;4.50;99.90
39503;DHT22;26970;49.900;10.774;2023-04-02T12:44:17;4.60;99.90
39503;DHT22;26970;49.900;10.774;2023-04-02T12:46:45;4.60;99.90
39503;DHT22;26970;49.900;10.774;2023-04-02T12:49:36;4.50;99.90
39503;DHT22;26970;49.900;10.774;2023-04-02T12:52:06;4.40;99.90
39503;DHT22;26970;49.900;10.774;2023-04-02T12:54:37;4.40;99.90
39503;DHT22;26970;49.900;10.774;2023-04-02T12:59:54;4.10;99.90
39503;DHT22;26970;49.900;10.774;2023-04-02T13:02:22;4.10;99.90
39503;DHT22;26970;49.900;10.774;2023-04-02T13:04:53;4.00;99.90
39503;DHT22;26970;49.900;10.774;2023-04-02T13:07:21;4.00;99.90
39503;DHT22;26970;49.900;10.774;2023-04-02T13:09:55;4.00;99.90
39503;DHT22;26970;49.900;10.774;2023-04-02T13:12:37;4.00;99.90
39503;DHT22;26970;49.900;10.774;2023-04-02T13:15:08;4.00;99.90
39503;DHT22;26970;49.900;10.774;2023-04-02T13:17:46;3.90;99.90
39503;DHT22;26970;49.900;10.774;2023-04-02T13:20:36;3.90;99.90
39503;DHT22;26970;49.900;10.774;2023-04-02T13:23:33;3.90;99.90
39503;DHT22;26970;49.900;10.774;2023-04-02T13:26:26;3.80;99.90
39503;DHT22;26970;49.900;10.774;2023-04-02T13:28:59;3.60;99.90
39503;DHT22;26970;49.900;10.774;2023-04-02T13:31:26;3.70;99.90
39503;DHT22;26970;49.900;10.774;2023-04-02T13:33:52;3.70;99.90
39503;DHT22;26970;49.900;10.774;2023-04-02T13:36:17;3.60;99.90
39503;DHT22;26970;49.900;10.774;2023-04-02T13:38:43;3.50;99.90
39503;DHT22;26970;49.900;10.774;2023-04-02T13:41:38;3.50;99.90
39503;DHT22;26970;49.900;10.774;2023-04-02T13:44:05;3.50;99.90
39503;DHT22;26970;49.900;10.774;2023-04-02T13:46:32;3.70;99.90
39503;DHT22;26970;49.900;10.774;2023-04-02T13:48:58;3.50;99.90
39503;DHT22;26970;49.900;10.774;2023-04-02T13:51:36;3.60;99.90
39503;DHT22;26970;49.900;10.774;2023-04-02T13:54:08;3.60;99.90
39503;DHT22;26970;49.900;10.774;2023-04-02T13:56:35;3.50;99.90
39503;DHT22;26970;49.900;10.774;2023-04-02T13:59:01;3.90;99.90
39503;DHT22;26970;49.900;10.774;2023-04-02T14:01:27;3.40;99.90
39503;DHT22;26970;49.900;10.774;2023-04-02T14:03:53;3.40;99.90
39503;DHT22;26970;49.900;10.774;2023-04-02T14:11:57;3.50;99.90
39503;DHT22;26970;49.900;10.774;2023-04-02T14:20:11;3.50;99.90
39503;DHT22;26970;49.900;10.774;2023-04-02T14:25:42;3.50;99.90
39503;DHT22;26970;49.900;10.774;2023-04-02T14:28:32;3.60;99.90
39503;DHT22;26970;49.900;10.774;2023-04-02T14:36:38;3.60;99.90
39503;DHT22;26970;49.900;10.774;2023-04-02T14:42:00;3.60;99.90
39503;DHT22;26970;49.900;10.774;2023-04-02T14:44:35;3.60;99.90
39503;DHT22;26970;49.900;10.774;2023-04-02T14:47:23;3.60;99.90
39503;DHT22;26970;49.900;10.774;2023-04-02T14:49:53;3.50;99.90
39503;DHT22;26970;49.900;10.774;2023-04-02T14:52:21;3.60;99.90
39503;DHT22;26970;49.900;10.774;2023-04-02T14:54:58;3.60;99.90
39503;DHT22;26970;49.900;10.774;2023-04-02T14:57:30;3.60;99.90
39503;DHT22;26970;49.900;10.774;2023-04-02T15:00:07;3.60;99.90
39503;DHT22;26970;49.900;10.774;2023-04-02T15:06:02;3.60;99.90
39503;DHT22;26970;49.900;10.774;2023-04-02T15:08:36;3.50;99.90
39503;DHT22;26970;49.900;10.774;2023-04-02T15:11:17;3.50;99.90
39503;DHT22;26970;49.900;10.774;2023-04-02T15:14:14;3.60;99.90
39503;DHT22;26970;49.900;10.774;2023-04-02T15:16:42;3.60;99.90
39503;DHT22;26970;49.900;10.774;2023-04-02T15:19:13;3.50;99.90
39503;DHT22;26970;49.900;10.774;2023-04-02T15:24:55;3.50;99.90
39503;DHT22;26970;49.900;10.774;2023-04-02T15:27:41;3.40;99.90
39503;DHT22;26970;49.900;10.774;2023-04-02T15:32:45;3.40;99.90
39503;DHT22;26970;49.900;10.774;2023-04-02T15:35:38;3.50;99.90
39503;DHT22;26970;49.900;10.774;2023-04-02T15:41:07;3.40;99.90
39503;DHT22;26970;49.900;10.774;2023-04-02T16:00:13;3.50;99.90
39503;DHT22;26970;49.900;10.774;2023-04-02T16:05:44;3.20;99.90
39503;DHT22;26970;49.900;10.774;2023-04-02T16:10:40;3.10;99.90
39503;DHT22;26970;49.900;10.774;2023-04-02T16:21:40;3.10;99.90
39503;DHT22;26970;49.900;10.774;2023-04-02T16:24:13;3.10;99.90
39503;DHT22;26970;49.900;10.774;2023-04-02T16:26:57;3.10;99.90
39503;DHT22;26970;49.900;10.774;2023-04-02T16:37:44;3.00;99.90
39503;DHT22;26970;49.900;10.774;2023-04-02T16:40:24;3.00;99.90
39503;DHT22;26970;49.900;10.774;2023-04-02T16:43:14;3.00;99.90
39503;DHT22;26970;49.900;10.774;2023-04-02T16:46:21;3.00;99.90
39503;DHT22;26970;49.900;10.774;2023-04-02T16:48:59;2.90;99.90
39503;DHT22;26970;49.900;10.774;2023-04-02T16:51:44;3.00;99.90
39503;DHT22;26970;49.900;10.774;2023-04-02T16:59:30;2.90;99.90
39503;DHT22;26970;49.900;10.774;2023-04-02T17:02:24;2.90;99.90
39503;DHT22;26970;49.900;10.774;2023-04-02T17:07:34;2.90;99.90
39503;DHT22;26970;49.900;10.774;2023-04-02T17:18:46;2.90;99.90
39503;DHT22;26970;49.900;10.774;2023-04-02T17:21:14;2.90;99.90
39503;DHT22;26970;49.900;10.774;2023-04-02T17:23:48;2.90;99.90
39503;DHT22;26970;49.900;10.774;2023-04-02T17:26:17;2.90;99.90
39503;DHT22;26970;49.900;10.774;2023-04-02T17:28:44;2.90;99.90
39503;DHT22;26970;49.900;10.774;2023-04-02T17:31:30;2.90;99.90
39503;DHT22;26970;49.900;10.774;2023-04-02T17:33:58;2.90;99.90
39503;DHT22;26970;49.900;10.774;2023-04-02T17:47:23;2.80;99.90
39503;DHT22;26970;49.900;10.774;2023-04-02T17:50:41;2.80;99.90
39503;DHT22;26970;49.900;10.774;2023-04-02T17:53:20;2.90;99.90
39503;DHT22;26970;49.900;10.774;2023-04-02T18:03:24;2.90;99.90
39503;DHT22;26970;49.900;10.774;2023-04-02T18:05:59;2.90;99.90
39503;DHT22;26970;49.900;10.774;2023-04-02T18:11:49;3.00;99.90
39503;DHT22;26970;49.900;10.774;2023-04-02T18:22:42;3.00;99.90
39503;DHT22;26970;49.900;10.774;2023-04-02T18:25:31;3.00;99.90
39503;DHT22;26970;49.900;10.774;2023-04-02T18:28:13;2.90;99.90
39503;DHT22;26970;49.900;10.774;2023-04-02T18:33:54;3.00;99.90
39503;DHT22;26970;49.900;10.774;2023-04-02T18:37:26;3.00;99.90
39503;DHT22;26970;49.900;10.774;2023-04-02T18:45:32;3.00;99.90
39503;DHT22;26970;49.900;10.774;2023-04-02T18:50:35;3.00;99.90
39503;DHT22;26970;49.900;10.774;2023-04-02T18:53:16;3.10;99.90
39503;DHT22;26970;49.900;10.774;2023-04-02T18:55:49;3.00;99.90
39503;DHT22;26970;49.900;10.774;2023-04-02T19:01:09;3.10;99.90
39503;DHT22;26970;49.900;10.774;2023-04-02T19:03:51;3.10;99.90
39503;DHT22;26970;49.900;10.774;2023-04-02T19:06:27;3.10;99.90
39503;DHT22;26970;49.900;10.774;2023-04-02T19:09:02;3.10;99.90
39503;DHT22;26970;49.900;10.774;2023-04-02T19:11:27;3.10;99.90
39503;DHT22;26970;49.900;10.774;2023-04-02T19:14:15;3.10;99.90
39503;DHT22;26970;49.900;10.774;2023-04-02T19:19:26;3.10;99.90
39503;DHT22;26970;49.900;10.774;2023-04-02T19:25:19;3.10;99.90
39503;DHT22;26970;49.900;10.774;2023-04-02T19:33:17;3.20;99.90
39503;DHT22;26970;49.900;10.774;2023-04-02T19:41:28;3.10;99.90
39503;DHT22;26970;49.900;10.774;2023-04-02T19:43:55;3.10;99.90
39503;DHT22;26970;49.900;10.774;2023-04-02T19:46:23;3.20;99.90
39503;DHT22;26970;49.900;10.774;2023-04-02T19:51:24;3.10;99.90
39503;DHT22;26970;49.900;10.774;2023-04-02T19:53:49;3.10;99.90
39503;DHT22;26970;49.900;10.774;2023-04-02T19:56:15;3.10;99.90
39503;DHT22;26970;49.900;10.774;2023-04-02T19:58:41;3.10;99.90
39503;DHT22;26970;49.900;10.774;2023-04-02T20:01:06;3.00;99.90
39503;DHT22;26970;49.900;10.774;2023-04-02T20:03:32;3.00;99.90
39503;DHT22;26970;49.900;10.774;2023-04-02T20:05:58;2.90;99.90
39503;DHT22;26970;49.900;10.774;2023-04-02T20:08:27;2.90;99.90
39503;DHT22;26970;49.900;10.774;2023-04-02T20:10:54;2.80;99.90
39503;DHT22;26970;49.900;10.774;2023-04-02T20:13:20;2.80;99.90
39503;DHT22;26970;49.900;10.774;2023-04-02T20:15:45;2.80;99.90
39503;DHT22;26970;49.900;10.774;2023-04-02T20:18:12;2.70;99.90
39503;DHT22;26970;49.900;10.774;2023-04-02T20:20:37;2.70;99.90
39503;DHT22;26970;49.900;10.774;2023-04-02T20:23:03;2.70;99.90
39503;DHT22;26970;49.900;10.774;2023-04-02T20:25:29;2.70;99.90
39503;DHT22;26970;49.900;10.774;2023-04-02T20:27:55;2.60;99.90
39503;DHT22;26970;49.900;10.774;2023-04-02T20:30:21;2.60;99.90
39503;DHT22;26970;49.900;10.774;2023-04-02T20:32:46;2.60;99.90
39503;DHT22;26970;49.900;10.774;2023-04-02T20:35:12;2.50;99.90
39503;DHT22;26970;49.900;10.774;2023-04-02T20:37:37;2.50;99.90
39503;DHT22;26970;49.900;10.774;2023-04-02T20:40:06;2.50;99.90
39503;DHT22;26970;49.900;10.774;2023-04-02T20:42:32;2.50;99.90
39503;DHT22;26970;49.900;10.774;2023-04-02T20:44:58;2.50;99.90
39503;DHT22;26970;49.900;10.774;2023-04-02T20:47:23;2.40;99.90
39503;DHT22;26970;49.900;10.774;2023-04-02T20:49:49;2.30;99.90
39503;DHT22;26970;49.900;10.774;2023-04-02T20:52:15;2.30;99.90
39503;DHT22;26970;49.900;10.774;2023-04-02T20:54:41;2.30;99.90
39503;DHT22;26970;49.900;10.774;2023-04-02T20:57:06;2.30;99.90
39503;DHT22;26970;49.900;10.774;2023-04-02T20:59:32;2.30;99.90
39503;DHT22;26970;49.900;10.774;2023-04-02T21:01:57;2.30;99.90
39503;DHT22;26970;49.900;10.774;2023-04-02T21:04:23;2.20;99.90
39503;DHT22;26970;49.900;10.774;2023-04-02T21:06:49;2.20;99.90
39503;DHT22;26970;49.900;10.774;2023-04-02T21:09:21;2.40;99.90
39503;DHT22;26970;49.900;10.774;2023-04-02T21:11:46;2.10;99.90
39503;DHT22;26970;49.900;10.774;2023-04-02T21:14:12;2.20;99.90
39503;DHT22;26970;49.900;10.774;2023-04-02T21:16:39;2.20;99.90
39503;DHT22;26970;49.900;10.774;2023-04-02T21:19:07;2.30;99.90
39503;DHT22;26970;49.900;10.774;2023-04-02T21:21:33;2.30;99.90
39503;DHT22;26970;49.900;10.774;2023-04-02T21:24:02;2.30;99.90
39503;DHT22;26970;49.900;10.774;2023-04-02T21:26:30;2.40;99.90
39503;DHT22;26970;49.900;10.774;2023-04-02T21:28:55;2.40;99.90